Map

Track Data

SID SEASON NUMBER BASIN SUBBASIN NAME ISO_TIME NATURE LAT LON WMO_WIND WMO_PRES WMO_AGENCY TRACK_TYPE DIST2LAND LANDFALL IFLAG USA_AGENCY USA_ATCF_ID USA_LAT USA_LON USA_RECORD USA_STATUS USA_WIND USA_PRES USA_SSHS USA_R34_NE USA_R34_SE USA_R34_SW USA_R34_NW USA_R50_NE USA_R50_SE USA_R50_SW USA_R50_NW USA_R64_NE USA_R64_SE USA_R64_SW USA_R64_NW USA_POCI USA_ROCI USA_RMW USA_EYE TOKYO_LAT TOKYO_LON TOKYO_GRADE TOKYO_WIND TOKYO_PRES TOKYO_R50_DIR TOKYO_R50_LONG TOKYO_R50_SHORT TOKYO_R30_DIR TOKYO_R30_LONG TOKYO_R30_SHORT TOKYO_LAND CMA_LAT CMA_LON CMA_CAT CMA_WIND CMA_PRES HKO_LAT HKO_LON HKO_CAT HKO_WIND HKO_PRES NEWDELHI_LAT NEWDELHI_LON NEWDELHI_GRADE NEWDELHI_WIND NEWDELHI_PRES NEWDELHI_CI NEWDELHI_DP NEWDELHI_POCI REUNION_LAT REUNION_LON REUNION_TYPE REUNION_WIND REUNION_PRES REUNION_TNUM REUNION_CI REUNION_RMW REUNION_R34_NE REUNION_R34_SE REUNION_R34_SW REUNION_R34_NW REUNION_R50_NE REUNION_R50_SE REUNION_R50_SW REUNION_R50_NW REUNION_R64_NE REUNION_R64_SE REUNION_R64_SW REUNION_R64_NW BOM_LAT BOM_LON BOM_TYPE BOM_WIND BOM_PRES BOM_TNUM BOM_CI BOM_RMW BOM_R34_NE BOM_R34_SE BOM_R34_SW BOM_R34_NW BOM_R50_NE BOM_R50_SE BOM_R50_SW BOM_R50_NW BOM_R64_NE BOM_R64_SE BOM_R64_SW BOM_R64_NW BOM_ROCI BOM_POCI BOM_EYE BOM_POS_METHOD BOM_PRES_METHOD NADI_LAT NADI_LON NADI_CAT NADI_WIND NADI_PRES WELLINGTON_LAT WELLINGTON_LON WELLINGTON_WIND WELLINGTON_PRES DS824_LAT DS824_LON DS824_STAGE DS824_WIND DS824_PRES TD9636_LAT TD9636_LON TD9636_STAGE TD9636_WIND TD9636_PRES TD9635_LAT TD9635_LON TD9635_WIND TD9635_PRES TD9635_ROCI NEUMANN_LAT NEUMANN_LON NEUMANN_CLASS NEUMANN_WIND NEUMANN_PRES MLC_LAT MLC_LON MLC_CLASS MLC_WIND MLC_PRES USA_GUST BOM_GUST BOM_GUST_PER REUNION_GUST REUNION_GUST_PER USA_SEAHGT USA_SEARAD_NE USA_SEARAD_SE USA_SEARAD_SW USA_SEARAD_NW STORM_SPEED STORM_DIR
1904306N20269 1904 43 NA GM NOT_NAMED 1904-10-31 12:00:00 TS 20.0000 -91.3000 35 hurdat_atl main 71 71 O_____________ hurdat_atl AL061904 20.0000 -91.3000 TS 35 0 6 304
1904306N20269 1904 43 NA GM NOT_NAMED 1904-10-31 15:00:00 TS 20.1801 -91.5798 main 109 109 P_____________ AL061904 20.1801 -91.5798 TS 35 0 6 310
1904306N20269 1904 43 NA GM NOT_NAMED 1904-10-31 18:00:00 TS 20.4000 -91.8000 35 hurdat_atl main 135 135 O_____________ hurdat_atl AL061904 20.4000 -91.8000 TS 35 0 6 327
1904306N20269 1904 43 NA GM NOT_NAMED 1904-10-31 21:00:00 TS 20.6849 -91.9226 main 147 147 P_____________ AL061904 20.6849 -91.9226 TS 35 0 6 343
1904306N20269 1904 43 NA GM NOT_NAMED 1904-11-01 00:00:00 TS 21.0000 -92.0000 35 hurdat_atl main 165 165 O_____________ hurdat_atl AL061904 21.0000 -92.0000 TS 35 0 6 342
1904306N20269 1904 43 NA GM NOT_NAMED 1904-11-01 03:00:00 TS 21.2925 -92.1299 main 185 185 P_____________ AL061904 21.2925 -92.1299 TS 37 0 6 343
1904306N20269 1904 43 NA GM NOT_NAMED 1904-11-01 06:00:00 TS 21.6000 -92.2000 40 hurdat_atl main 204 204 O_____________ hurdat_atl AL061904 21.6000 -92.2000 TS 40 0 6 358
1904306N20269 1904 43 NA GM NOT_NAMED 1904-11-01 09:00:00 TS 21.9350 -92.1376 main 206 206 P_____________ AL061904 21.9350 -92.1376 TS 40 0 7 15
1904306N20269 1904 43 NA GM NOT_NAMED 1904-11-01 12:00:00 TS 22.3000 -92.0000 40 hurdat_atl main 220 220 O_____________ hurdat_atl AL061904 22.3000 -92.0000 TS 40 0 8 19
1904306N20269 1904 43 NA GM NOT_NAMED 1904-11-01 15:00:00 TS 22.7000 -91.8575 main 243 236 P_____________ AL061904 22.7000 -91.8575 TS 42 0 9 19
1904306N20269 1904 43 NA GM NOT_NAMED 1904-11-01 18:00:00 TS 23.1000 -91.7000 45 hurdat_atl main 266 266 O_____________ hurdat_atl AL061904 23.1000 -91.7000 TS 45 0 8 20
1904306N20269 1904 43 NA GM NOT_NAMED 1904-11-01 21:00:00 TS 23.4650 -91.5499 main 295 295 P_____________ AL061904 23.4650 -91.5499 TS 45 0 8 21
1904306N20269 1904 43 NA GM NOT_NAMED 1904-11-02 00:00:00 TS 23.8000 -91.4000 45 hurdat_atl main 322 322 O_____________ hurdat_atl AL061904 23.8000 -91.4000 TS 45 0 7 24
1904306N20269 1904 43 NA GM NOT_NAMED 1904-11-02 03:00:00 TS 24.0850 -91.2573 main 350 347 P_____________ AL061904 24.0850 -91.2573 TS 45 0 7 25
1904306N20269 1904 43 NA GM NOT_NAMED 1904-11-02 06:00:00 TS 24.4000 -91.1000 45 hurdat_atl main 377 377 O_____________ hurdat_atl AL061904 24.4000 -91.1000 TS 45 0 8 22
1904306N20269 1904 43 NA GM NOT_NAMED 1904-11-02 09:00:00 TS 24.8048 -90.9444 main 415 415 P_____________ AL061904 24.8048 -90.9444 TS 42 0 10 22
1904306N20269 1904 43 NA GM NOT_NAMED 1904-11-02 12:00:00 TS 25.3000 -90.7000 40 hurdat_atl main 424 368 O_____________ hurdat_atl AL061904 25.3000 -90.7000 TS 40 0 12 29
1904306N20269 1904 43 NA GM NOT_NAMED 1904-11-02 15:00:00 TS 25.8702 -90.2876 main 357 287 P_____________ AL061904 25.8702 -90.2876 TS 37 0 15 34
1904306N20269 1904 43 NA GM NOT_NAMED 1904-11-02 18:00:00 TS 26.5000 -89.8000 35 hurdat_atl main 287 214 O_____________ hurdat_atl AL061904 26.5000 -89.8000 TS 35 0 15 34
1904306N20269 1904 43 NA GM NOT_NAMED 1904-11-02 21:00:00 TS 27.1424 -89.3422 main 213 135 P_____________ AL061904 27.1424 -89.3422 TS 35 0 15 32
1904306N20269 1904 43 NA GM NOT_NAMED 1904-11-03 00:00:00 TS 27.8000 -88.9000 35 hurdat_atl main 135 82 O_____________ hurdat_atl AL061904 27.8000 -88.9000 TS 35 0 15 29
1904306N20269 1904 43 NA GM NOT_NAMED 1904-11-03 03:00:00 TS 28.4568 -88.5361 main 80 71 P_____________ AL061904 28.4568 -88.5361 TS 35 0 15 28
1904306N20269 1904 43 NA GM NOT_NAMED 1904-11-03 06:00:00 TS 29.1000 -88.1000 35 hurdat_atl main 87 66 O_____________ hurdat_atl AL061904 29.1000 -88.1000 TS 35 0 16 36
1904306N20269 1904 43 NA GM NOT_NAMED 1904-11-03 09:00:00 TS 29.7221 -87.4820 main 66 11 P_____________ AL061904 29.7221 -87.4820 TS 35 0 17 45
1904306N20269 1904 43 NA GM NOT_NAMED 1904-11-03 12:00:00 TS 30.3000 -86.7000 35 hurdat_atl main 11 0 O_____________ hurdat_atl AL061904 30.3000 -86.7000 L TS 35 0 18 53
1904306N20269 1904 43 NA NA NOT_NAMED 1904-11-03 15:00:00 TS 30.8297 -85.8020 main 0 0 P_____________ AL061904 30.8297 -85.8020 TS 32 -1 19 58
1904306N20269 1904 43 NA NA NOT_NAMED 1904-11-03 18:00:00 TS 31.3000 -84.8000 30 hurdat_atl main 0 0 O_____________ hurdat_atl AL061904 31.3000 -84.8000 TD 30 -1 19 63
1904306N20269 1904 43 NA NA NOT_NAMED 1904-11-03 21:00:00 TS 31.7141 -83.7786 main 0 0 P_____________ AL061904 31.7141 -83.7786 TD 30 -1 20 66
1904306N20269 1904 43 NA NA NOT_NAMED 1904-11-04 00:00:00 TS 32.1000 -82.7000 30 hurdat_atl main 0 0 O_____________ hurdat_atl AL061904 32.1000 -82.7000 TD 30 -1 20 67
1904306N20269 1904 43 NA NA NOT_NAMED 1904-11-04 03:00:00 TS 32.5141 -81.5722 main 0 0 P_____________ AL061904 32.5141 -81.5722 TD 30 -1 21 68
1904306N20269 1904 43 NA NA NOT_NAMED 1904-11-04 06:00:00 TS 32.9000 -80.4000 30 hurdat_atl main 0 0 O_____________ hurdat_atl AL061904 32.9000 -80.4000 TD 30 -1 21 70
1904306N20269 1904 43 NA NA NOT_NAMED 1904-11-04 09:00:00 TS 33.2373 -79.1774 main 0 0 P_____________ AL061904 33.2373 -79.1774 TD 32 -1 21 73
1904306N20269 1904 43 NA NA NOT_NAMED 1904-11-04 12:00:00 ET 33.5000 -78.0000 35 hurdat_atl main 44 43 O_____________ hurdat_atl AL061904 33.5000 -78.0000 EX 35 -4 18 77
1904306N20269 1904 43 NA NA NOT_NAMED 1904-11-04 15:00:00 ET 33.6397 -77.0121 main 98 98 P_____________ AL061904 33.6397 -77.0121 EX 35 -4 17 80
1904306N20269 1904 43 NA NA NOT_NAMED 1904-11-04 18:00:00 ET 33.8000 -76.0000 35 hurdat_atl main 110 110 O_____________ hurdat_atl AL061904 33.8000 -76.0000 EX 35 -4 20 76
1904306N20269 1904 43 NA NA NOT_NAMED 1904-11-04 21:00:00 ET 34.1282 -74.7237 main 171 171 P_____________ AL061904 34.1282 -74.7237 EX 35 -4 23 72
1904306N20269 1904 43 NA NA NOT_NAMED 1904-11-05 00:00:00 ET 34.5000 -73.4000 35 hurdat_atl main 239 239 O_____________ hurdat_atl AL061904 34.5000 -73.4000 EX 35 -4 22 72
1904306N20269 1904 43 NA NA NOT_NAMED 1904-11-05 03:00:00 ET 34.7830 -72.2326 main 318 318 P_____________ AL061904 34.7830 -72.2326 EX 35 -4 20 72
1904306N20269 1904 43 NA NA NOT_NAMED 1904-11-05 06:00:00 ET 35.1000 -71.1000 35 hurdat_atl main 405 405 O_____________ hurdat_atl AL061904 35.1000 -71.1000 EX 35 -4 20 70
1904306N20269 1904 43 NA NA NOT_NAMED 1904-11-05 09:00:00 ET 35.4659 -69.9262 main 505 505 P_____________ AL061904 35.4659 -69.9262 EX 35 -4 21 65
1904306N20269 1904 43 NA NA NOT_NAMED 1904-11-05 12:00:00 ET 36.0000 -68.7000 35 hurdat_atl main 611 596 O_____________ hurdat_atl AL061904 36.0000 -68.7000 EX 35 -4 24 58
1904306N20269 1904 43 NA NA NOT_NAMED 1904-11-05 15:00:00 ET 36.7420 -67.4348 main 599 559 P_____________ AL061904 36.7420 -67.4348 EX 35 -4 27 52
1904306N20269 1904 43 NA NA NOT_NAMED 1904-11-05 18:00:00 ET 37.7000 -66.0000 35 hurdat_atl main 560 539 O_____________ hurdat_atl AL061904 37.7000 -66.0000 EX 35 -4 33 51
1904306N20269 1904 43 NA NA NOT_NAMED 1904-11-05 21:00:00 ET 38.7995 -64.2312 main 530 458 P_____________ AL061904 38.7995 -64.2312 EX 35 -4 36 51
1904306N20269 1904 43 NA NA NOT_NAMED 1904-11-06 00:00:00 ET 40.0000 -62.4000 35 hurdat_atl main 457 431 O_____________ hurdat_atl AL061904 40.0000 -62.4000 EX 35 -4 36 49
1904306N20269 1904 43 NA NA NOT_NAMED 1904-11-06 03:00:00 ET 41.1769 -60.7131 main 424 349 P_____________ AL061904 41.1769 -60.7131 EX 35 -4 33 44
1904306N20269 1904 43 NA NA NOT_NAMED 1904-11-06 06:00:00 ET 42.4000 -59.3000 35 hurdat_atl main 342 268 O_____________ hurdat_atl AL061904 42.4000 -59.3000 EX 35 -4 31 35
1904306N20269 1904 43 NA NA NOT_NAMED 1904-11-06 09:00:00 ET 43.7561 -58.2971 main 259 217 P_____________ AL061904 43.7561 -58.2971 EX 35 -4 29 27
1904306N20269 1904 43 NA NA NOT_NAMED 1904-11-06 12:00:00 ET 45.0000 -57.5000 35 hurdat_atl main 220 125 O_____________ hurdat_atl AL061904 45.0000 -57.5000 EX 35 -4 25 29
1904306N20269 1904 43 NA NA NOT_NAMED 1904-11-06 15:00:00 ET 45.9079 -56.6373 main 121 23 P_____________ AL061904 45.9079 -56.6373 EX 35 -4 20 38
1904306N20269 1904 43 NA NA NOT_NAMED 1904-11-06 18:00:00 ET 46.6000 -55.7000 35 hurdat_atl main 22 O_____________ hurdat_atl AL061904 46.6000 -55.7000 EX 35 -4 19 43

About IBTrACS Database

This database is a web-friendly format of International Best Track Archive for Climate Stewardship (IBTrACS), a global best track data archive curated by NOAA dating back to 1842.

Updated: 2021-10-27